Time;durP1;ratioP1;P1;durP2;ratioP2;P2;SDS_P1;SDS_P2;PMS_P1;PMS_P2;Temp;Humidity;BMP_temperature;BMP_pressure;BME280_temperature;BME280_humidity;BME280_pressure;Samples;Min_cycle;Max_cycle;Signal;HPM_P1;HPM_P2
2022/09/17 00:01:21;;;;;;;13.45;2.55;;;;;;;14.50;59.51;101208.25;4870566;28;124858;-69
2022/09/17 00:03:56;;;;;;;11.35;2.40;;;;;;;14.47;59.53;101211.13;4871933;28;123535;-69
2022/09/17 00:06:24;;;;;;;8.82;2.00;;;;;;;14.48;59.66;101211.97;4869733;28;119201;-69
2022/09/17 00:08:52;;;;;;;7.15;2.00;;;;;;;14.46;59.62;101209.38;4871461;28;119674;-68
2022/09/17 00:11:32;;;;;;;8.82;2.25;;;;;;;14.45;59.47;101218.34;4884768;28;124129;-69
2022/09/17 00:14:01;;;;;;;11.93;2.28;;;;;;;14.44;59.74;101216.59;4886554;28;123924;-69
2022/09/17 00:16:30;;;;;;;9.43;2.00;;;;;;;14.44;59.72;101221.94;4883581;28;119296;-69
2022/09/17 00:18:58;;;;;;;12.45;2.10;;;;;;;14.44;59.62;101226.41;4882011;28;118821;-69
2022/09/17 00:21:26;;;;;;;13.90;2.63;;;;;;;14.44;59.71;101227.25;4872543;28;123847;-69
2022/09/17 00:23:56;;;;;;;9.57;1.88;;;;;;;14.42;59.69;101229.16;4870164;28;123664;-69
2022/09/17 00:26:24;;;;;;;10.30;2.10;;;;;;;14.42;59.77;101234.50;4869791;28;120043;-69
2022/09/17 00:28:52;;;;;;;9.65;1.95;;;;;;;14.41;59.76;101236.31;4870235;28;119090;-69
2022/09/17 00:31:20;;;;;;;9.45;2.20;;;;;;;14.42;59.75;101234.50;4870546;28;124623;-69
2022/09/17 00:33:48;;;;;;;12.93;2.13;;;;;;;14.42;59.83;101239.81;4870091;28;123768;-69
2022/09/17 00:36:16;;;;;;;8.25;1.80;;;;;;;14.43;59.79;101241.56;4868891;28;119294;-69
2022/09/17 00:38:43;;;;;;;9.35;2.17;;;;;;;14.44;59.85;101243.25;4869944;28;118962;-69
2022/09/17 00:41:10;;;;;;;14.00;1.90;;;;;;;14.45;59.90;101245.00;4885173;28;123392;-69
2022/09/17 00:43:41;;;;;;;10.43;2.38;;;;;;;14.47;59.63;101240.44;4871350;28;123708;-69
2022/09/17 00:46:21;;;;;;;9.60;2.20;;;;;;;14.46;59.93;101249.34;4867569;28;120100;-68
2022/09/17 00:48:52;;;;;;;12.50;2.38;;;;;;;14.47;59.85;101248.44;4866649;28;118927;-69
2022/09/17 00:51:26;;;;;;;8.18;2.38;;;;;;;14.48;60.24;101247.47;4866955;28;125362;-68
2022/09/17 00:53:54;;;;;;;13.20;2.17;;;;;;;14.49;59.85;101254.53;4866699;28;123809;-69
2022/09/17 00:56:26;;;;;;;12.63;2.30;;;;;;;14.49;59.82;101257.19;4868132;28;119713;-69
2022/09/17 00:58:54;;;;;;;12.95;2.40;;;;;;;14.49;59.83;101251.00;4866829;28;118866;-69
2022/09/17 01:01:21;;;;;;;10.25;2.45;;;;;;;14.49;60.01;101257.19;4869521;28;124538;-69
2022/09/17 01:03:49;;;;;;;12.75;2.47;;;;;;;14.50;59.96;101258.91;4870129;28;123917;-69
2022/09/17 01:06:27;;;;;;;12.63;2.28;;;;;;;14.50;59.91;101258.91;4868416;28;120497;-69
2022/09/17 01:09:24;;;;;;;9.77;2.03;;;;;;;14.50;59.85;101252.72;4869881;28;121086;-69
2022/09/17 01:12:16;;;;;;;10.35;2.08;;;;;;;14.49;59.83;101262.53;4866402;28;124412;-69
2022/09/17 01:15:12;;;;;;;10.85;2.25;;;;;;;14.50;59.77;101258.03;4867433;28;122457;-69
2022/09/17 01:17:38;;;;;;;14.95;2.38;;;;;;;14.50;59.87;101258.03;4869610;28;119878;-70
2022/09/17 01:20:47;;;;;;;12.55;2.40;;;;;;;14.50;59.91;101261.56;4869816;28;118596;-69
2022/09/17 01:23:27;;;;;;;8.57;2.13;;;;;;;14.50;59.89;101264.22;4867583;28;123847;-69
2022/09/17 01:26:12;;;;;;;8.23;1.75;;;;;;;14.51;59.80;101260.63;4868004;28;124526;-69
2022/09/17 01:29:05;;;;;;;10.65;1.90;;;;;;;14.50;59.83;101264.22;4867942;28;119079;-69
2022/09/17 01:32:02;;;;;;;9.77;2.35;;;;;;;14.48;59.84;101266.13;4839825;28;119162;-69
2022/09/17 01:34:53;;;;;;;8.70;2.08;;;;;;;14.47;59.85;101264.41;4866301;28;124645;-69
2022/09/17 01:37:35;;;;;;;13.77;2.17;;;;;;;14.45;59.87;101276.97;4866199;28;123702;-69
2022/09/17 01:40:08;;;;;;;12.18;2.22;;;;;;;14.45;59.85;101282.31;4868912;28;119843;-69
2022/09/17 01:42:46;;;;;;;11.60;2.08;;;;;;;14.44;60.02;101285.91;4866241;28;119281;-69
2022/09/17 01:45:22;;;;;;;9.90;2.03;;;;;;;14.43;59.99;101278.88;4882915;28;123702;-69
2022/09/17 01:47:58;;;;;;;11.82;2.10;;;;;;;14.42;59.95;101285.13;4868818;28;123716;-69
2022/09/17 01:50:37;;;;;;;12.15;2.08;;;;;;;14.41;59.86;101288.75;4864730;28;119459;-70
2022/09/17 01:53:07;;;;;;;13.88;2.33;;;;;;;14.40;59.97;101287.00;4867214;28;118933;-69
2022/09/17 01:55:38;;;;;;;10.55;1.98;;;;;;;14.38;60.01;101286.22;4868293;28;124007;-69
2022/09/17 01:58:15;;;;;;;15.50;1.92;;;;;;;14.38;60.04;101286.22;4870338;28;123555;-69
2022/09/17 02:00:49;;;;;;;9.05;1.67;;;;;;;14.37;59.90;101280.06;4869294;28;120203;-68
2022/09/17 02:03:25;;;;;;;7.32;1.55;;;;;;;14.37;60.07;101280.06;4871897;28;121343;-69
2022/09/17 02:05:58;;;;;;;8.50;2.00;;;;;;;14.36;59.96;101293.44;4871771;28;122872;-69
2022/09/17 02:08:35;;;;;;;9.35;1.90;;;;;;;14.32;60.05;101276.75;4869807;28;124002;-69
2022/09/17 02:11:09;;;;;;;10.07;2.22;;;;;;;14.32;59.82;101289.25;4881647;28;118517;-68
2022/09/17 02:14:01;;;;;;;12.02;1.83;;;;;;;14.30;59.58;101283.13;4872483;28;118005;-69
2022/09/17 02:16:32;;;;;;;14.90;2.17;;;;;;;14.29;59.92;101286.72;4872026;28;124309;-69
2022/09/17 02:19:08;;;;;;;9.27;1.98;;;;;;;14.28;59.93;101290.31;4874410;28;124003;-69
2022/09/17 02:21:52;;;;;;;;;;;;;;;14.26;59.59;101297.53;4869819;28;119388;-69
2022/09/17 02:24:23;;;;;;;11.68;2.08;;;;;;;14.25;59.57;101298.50;4888067;28;117716;-69
2022/09/17 02:27:10;;;;;;;9.80;1.80;;;;;;;14.22;59.77;101307.50;4869578;28;125028;-69
2022/09/17 02:29:40;;;;;;;14.50;2.40;;;;;;;14.21;59.89;101301.31;4867525;28;124043;-69
2022/09/17 02:32:09;;;;;;;9.23;1.92;;;;;;;14.19;60.00;101303.19;4876315;28;119497;-69
2022/09/17 02:34:37;;;;;;;8.55;1.80;;;;;;;14.19;59.94;101297.88;4877539;28;119217;-69
2022/09/17 02:37:05;;;;;;;7.95;1.73;;;;;;;14.20;60.01;101304.94;4871347;28;124778;-69
2022/09/17 02:39:32;;;;;;;7.55;1.75;;;;;;;14.19;59.93;101308.53;4872327;28;123188;-69
2022/09/17 02:42:22;;;;;;;11.27;2.25;;;;;;;14.20;59.97;101312.94;4872344;28;120591;-69
2022/09/17 02:45:04;;;;;;;10.80;2.22;;;;;;;14.19;59.91;101305.84;4868632;28;119779;-69
2022/09/17 02:48:14;;;;;;;10.90;1.90;;;;;;;14.19;60.06;101303.19;4887258;28;123310;-69
2022/09/17 02:51:11;;;;;;;12.77;2.17;;;;;;;14.18;60.04;101312.16;4872858;28;123748;-69
2022/09/17 02:53:56;;;;;;;8.98;1.60;;;;;;;14.16;60.00;101303.34;4870958;28;120271;-69
2022/09/17 02:56:45;;;;;;;11.57;2.10;;;;;;;14.16;60.14;101303.34;4871087;28;119904;-69
2022/09/17 02:59:20;;;;;;;10.95;1.95;;;;;;;14.15;60.03;101306.97;4876194;28;99376;-70
2022/09/17 03:02:07;;;;;;;7.57;1.73;;;;;;;14.16;60.07;101314.00;4873618;28;124784;-69
2022/09/17 03:04:37;;;;;;;11.02;1.98;;;;;;;14.17;60.29;101305.09;4887535;28;118514;-69
2022/09/17 03:07:10;;;;;;;10.45;1.80;;;;;;;14.18;60.16;101306.81;4873028;28;118779;-69
2022/09/17 03:09:38;;;;;;;12.50;2.40;;;;;;;14.19;60.10;101308.53;4868785;28;124594;-69
2022/09/17 03:12:05;;;;;;;9.45;1.60;;;;;;;14.19;60.06;101311.19;4870930;28;124550;-69
2022/09/17 03:14:32;;;;;;;12.80;2.00;;;;;;;14.20;59.98;101304.94;4871490;28;119583;-69
2022/09/17 03:16:59;;;;;;;10.57;1.98;;;;;;;14.20;60.09;101304.06;4870107;28;118987;-69
2022/09/17 03:19:26;;;;;;;9.95;1.90;;;;;;;14.20;60.13;101310.25;4885246;28;124386;-69
2022/09/17 03:21:54;;;;;;;15.55;2.10;;;;;;;14.19;60.12;101308.53;4870804;28;123985;-69
2022/09/17 03:24:21;;;;;;;9.68;1.80;;;;;;;14.20;60.01;101304.06;4870559;28;118045;-69
2022/09/17 03:26:49;;;;;;;7.68;1.83;;;;;;;14.18;59.98;101301.50;4870694;28;119024;-69
2022/09/17 03:29:16;;;;;;;9.75;2.03;;;;;;;14.18;59.95;101301.50;4870858;28;123733;-69
2022/09/17 03:31:43;;;;;;;11.38;1.95;;;;;;;14.19;59.94;101297.00;4871090;28;123683;-69
2022/09/17 03:34:10;;;;;;;10.68;1.90;;;;;;;14.18;59.95;101296.16;4873192;28;119872;-69
2022/09/17 03:36:37;;;;;;;19.52;2.13;;;;;;;14.18;60.01;101301.50;4870745;28;117837;-69
2022/09/17 03:39:04;;;;;;;14.45;2.28;;;;;;;14.16;59.96;101298.03;4886196;28;123545;-70
2022/09/17 03:41:31;;;;;;;8.57;1.50;;;;;;;14.16;59.92;101292.69;4867632;28;123860;-69
2022/09/17 03:43:58;;;;;;;13.27;2.10;;;;;;;14.15;59.88;101298.97;4876830;28;119030;-69
2022/09/17 03:46:25;;;;;;;9.07;1.85;;;;;;;14.15;60.03;101306.97;4870532;28;119704;-69
2022/09/17 03:48:52;;;;;;;9.98;1.95;;;;;;;14.13;60.12;101308.84;4869527;28;124364;-69
2022/09/17 03:51:19;;;;;;;10.00;1.90;;;;;;;14.13;60.06;101303.53;4868272;28;125635;-69
2022/09/17 03:53:46;;;;;;;7.88;1.55;;;;;;;14.13;60.26;101303.53;4870437;28;119136;-69
2022/09/17 03:56:13;;;;;;;11.13;2.00;;;;;;;14.14;60.12;101310.56;4869540;28;119665;-69
2022/09/17 03:58:40;;;;;;;9.68;1.92;;;;;;;14.16;60.16;101305.16;4872678;28;125519;-69
2022/09/17 04:01:07;;;;;;;10.23;1.63;;;;;;;14.16;60.25;101303.34;4870854;28;123769;-69
2022/09/17 04:03:34;;;;;;;8.65;1.70;;;;;;;14.19;60.16;101297.88;4872168;28;119270;-70
2022/09/17 04:06:01;;;;;;;10.23;1.75;;;;;;;14.18;60.16;101301.50;4869754;28;119656;-69
2022/09/17 04:08:28;;;;;;;9.75;1.60;;;;;;;14.20;60.11;101304.94;4870341;28;124801;-69
2022/09/17 04:10:55;;;;;;;8.20;1.90;;;;;;;14.21;60.07;101301.31;4868590;28;123277;-69
2022/09/17 04:13:23;;;;;;;9.48;1.52;;;;;;;14.21;60.11;101306.63;4870410;28;119159;-69
2022/09/17 04:15:50;;;;;;;11.70;1.70;;;;;;;14.23;60.06;101313.69;4876182;28;118319;-69
2022/09/17 04:18:18;;;;;;;9.40;1.77;;;;;;;14.25;60.10;101311.81;4872230;28;123894;-69
2022/09/17 04:20:45;;;;;;;9.10;1.52;;;;;;;14.26;59.94;101316.19;4877417;28;122620;-69
2022/09/17 04:23:12;;;;;;;9.18;1.48;;;;;;;14.26;60.03;101321.50;4870269;28;119170;-69
2022/09/17 04:25:39;;;;;;;10.90;1.77;;;;;;;14.25;59.84;101311.81;4868229;28;119732;-69
2022/09/17 04:28:06;;;;;;;8.40;1.70;;;;;;;14.26;59.86;101316.19;4869998;28;124075;-69
2022/09/17 04:30:33;;;;;;;9.55;1.42;;;;;;;14.27;59.64;101320.59;4870327;28;124178;-69
2022/09/17 04:33:00;;;;;;;10.27;1.60;;;;;;;14.28;59.70;101319.63;4867410;28;120384;-69
2022/09/17 04:35:27;;;;;;;9.93;1.95;;;;;;;14.29;59.47;101324.03;4871852;28;120498;-69
2022/09/17 04:37:57;;;;;;;7.70;1.65;;;;;;;14.28;59.59;101322.28;4872893;28;124185;-69
2022/09/17 04:40:25;;;;;;;9.70;1.50;;;;;;;14.25;59.33;101322.47;4870570;28;122828;-69
2022/09/17 04:42:54;;;;;;;8.68;1.52;;;;;;;14.23;59.81;101330.53;4870393;28;118924;-69
2022/09/17 04:45:21;;;;;;;8.68;1.40;;;;;;;14.21;59.35;101327.94;4869473;28;119612;-69
2022/09/17 04:47:51;;;;;;;10.15;1.50;;;;;;;14.20;59.27;101331.56;4871771;28;124096;-69
2022/09/17 04:50:19;;;;;;;7.18;1.60;;;;;;;14.18;59.15;101337.91;4874120;28;126359;-69
2022/09/17 04:52:47;;;;;;;6.45;1.33;;;;;;;14.15;59.27;101328.28;4872479;28;118362;-69
2022/09/17 04:55:15;;;;;;;8.57;1.55;;;;;;;14.13;59.02;101330.16;4872941;28;118737;-69
2022/09/17 04:57:50;;;;;;;5.53;1.20;;;;;;;14.12;59.13;101332.91;4868278;28;124459;-69
2022/09/17 05:00:18;;;;;;;7.50;1.48;;;;;;;14.10;59.04;101330.31;4868674;28;122048;-69
2022/09/17 05:02:48;;;;;;;6.65;1.40;;;;;;;14.09;59.15;101328.59;4868110;28;119670;-69
2022/09/17 05:05:16;;;;;;;7.47;1.40;;;;;;;14.07;59.11;101325.16;4881098;28;118468;-69
2022/09/17 05:07:44;;;;;;;11.05;1.48;;;;;;;14.05;59.33;101321.69;4868587;28;124355;-69
2022/09/17 05:10:12;;;;;;;11.35;1.85;;;;;;;14.05;59.20;101321.69;4880154;28;123593;-69
2022/09/17 05:12:39;;;;;;;9.60;1.48;;;;;;;14.03;59.15;101334.22;4868541;28;118974;-69
2022/09/17 05:15:07;;;;;;;9.02;1.70;;;;;;;14.00;59.43;101324.63;4865465;28;118558;-69
2022/09/17 05:17:33;;;;;;;11.00;1.40;;;;;;;13.98;59.31;101336.28;4870330;28;123826;-68
2022/09/17 05:20:01;;;;;;;8.27;1.77;;;;;;;13.96;59.38;101338.19;4868669;28;123546;-69
2022/09/17 05:22:28;;;;;;;10.35;1.55;;;;;;;13.96;59.41;101346.16;4868894;28;120168;-70
2022/09/17 05:24:56;;;;;;;6.35;1.35;;;;;;;13.96;59.46;101348.81;4869307;28;120385;-69
2022/09/17 05:27:23;;;;;;;6.57;1.50;;;;;;;13.95;59.42;101352.41;4871128;28;124066;-69
2022/09/17 05:29:50;;;;;;;9.07;1.55;;;;;;;13.94;59.54;101350.72;4871912;28;123243;-69
2022/09/17 05:32:17;;;;;;;7.30;1.65;;;;;;;13.92;59.51;101348.13;4872663;28;119141;-68
2022/09/17 05:34:44;;;;;;;7.00;1.30;;;;;;;13.93;59.59;101348.97;4875098;28;119217;-69
2022/09/17 05:37:11;;;;;;;9.38;1.45;;;;;;;13.94;59.65;101350.72;4886444;28;123156;-69
2022/09/17 05:39:38;;;;;;;8.55;1.45;;;;;;;13.93;59.55;101344.50;4872173;28;123927;-69
2022/09/17 05:42:05;;;;;;;8.90;1.77;;;;;;;13.94;59.64;101350.72;4872955;28;118492;-69
2022/09/17 05:44:32;;;;;;;8.35;1.83;;;;;;;13.94;59.76;101348.06;4887982;28;118297;-69
2022/09/17 05:46:59;;;;;;;9.05;1.38;;;;;;;13.94;59.73;101351.56;4872535;28;126162;-69
2022/09/17 05:49:26;;;;;;;10.43;1.63;;;;;;;13.96;59.75;101362.16;4873205;28;123961;-69
2022/09/17 05:51:53;;;;;;;11.82;1.92;;;;;;;13.97;59.73;101366.50;4871416;28;119914;-69
2022/09/17 05:54:20;;;;;;;10.57;1.70;;;;;;;13.99;59.74;101369.97;4889552;28;118966;-69
2022/09/17 05:56:51;;;;;;;11.57;1.45;;;;;;;14.01;59.66;101368.97;4870839;28;124942;-70
2022/09/17 05:59:18;;;;;;;11.85;1.83;;;;;;;14.06;59.83;101376.69;4854745;28;123816;-70
2022/09/17 06:01:45;;;;;;;9.65;1.63;;;;;;;14.09;59.78;101370.34;4875500;28;119292;-69
2022/09/17 06:04:12;;;;;;;11.60;2.00;;;;;;;14.12;59.53;101381.72;4873449;28;118772;-70
2022/09/17 06:06:40;;;;;;;7.68;1.55;;;;;;;14.14;59.89;101379.81;4872079;28;124574;-69
2022/09/17 06:09:08;;;;;;;7.93;1.30;;;;;;;14.16;59.81;101383.25;4872999;28;124361;-70
2022/09/17 06:11:36;;;;;;;12.63;1.92;;;;;;;14.20;59.76;101390.19;4886591;28;119843;-69
2022/09/17 06:14:03;;;;;;;8.73;1.63;;;;;;;14.25;59.69;101378.44;4871527;28;119951;-69
2022/09/17 06:16:30;;;;;;;7.07;1.60;;;;;;;14.30;59.71;101379.06;4871547;28;123946;-69
2022/09/17 06:18:57;;;;;;;8.38;1.73;;;;;;;14.37;59.66;101391.09;4871980;28;124041;-69
2022/09/17 06:21:24;;;;;;;12.50;1.58;;;;;;;14.44;59.71;101387.16;4871864;28;120323;-70
2022/09/17 06:23:51;;;;;;;7.95;1.50;;;;;;;14.51;59.81;101393.06;4872001;28;119690;-70
2022/09/17 06:26:18;;;;;;;4.90;1.40;;;;;;;14.56;59.25;101391.88;4884067;28;123969;-69
2022/09/17 06:28:45;;;;;;;7.10;1.50;;;;;;;14.65;59.45;101390.53;4890004;28;123892;-69
2022/09/17 06:31:12;;;;;;;8.65;1.20;;;;;;;14.72;59.46;101381.25;4872690;28;119652;-69
2022/09/17 06:33:40;;;;;;;8.93;1.58;;;;;;;14.85;59.47;101392.13;4872949;28;117889;-69
2022/09/17 06:36:10;;;;;;;7.90;1.55;;;;;;;15.00;59.48;101390.44;4871445;28;124363;-70
2022/09/17 06:38:41;;;;;;;14.20;2.13;;;;;;;15.16;59.36;101401.13;4869553;28;124235;-69
2022/09/17 06:41:08;;;;;;;9.90;1.58;;;;;;;15.30;59.23;101393.22;4872420;28;118411;-68
2022/09/17 06:43:35;;;;;;;8.73;1.73;;;;;;;15.41;58.77;101395.28;4874050;28;119627;-71
2022/09/17 06:46:04;;;;;;;13.68;1.73;;;;;;;15.46;58.42;101392.34;4869292;28;124134;-68
2022/09/17 06:48:33;;;;;;;10.68;1.60;;;;;;;15.49;58.07;101392.19;4885720;28;123270;-69
2022/09/17 06:51:03;;;;;;;14.02;1.92;;;;;;;15.50;57.73;101391.22;4871475;28;119435;-69
2022/09/17 06:53:30;;;;;;;11.23;1.70;;;;;;;15.54;58.05;101390.13;4869890;28;118240;-70
2022/09/17 06:55:58;;;;;;;11.55;1.67;;;;;;;15.67;58.35;101391.13;4868656;28;123536;-69
2022/09/17 06:58:36;;;;;;;10.25;1.67;;;;;;;15.80;58.48;101390.44;4870094;28;123275;-69
2022/09/17 07:01:04;;;;;;;8.82;1.60;;;;;;;15.93;58.14;101386.09;4870597;28;120588;-69
2022/09/17 07:03:32;;;;;;;10.50;1.90;;;;;;;16.02;57.71;101385.56;4868981;28;119742;-69
2022/09/17 07:05:59;;;;;;;10.48;1.75;;;;;;;16.09;57.75;101392.25;4887390;28;125255;-69
2022/09/17 07:08:26;;;;;;;6.90;1.48;;;;;;;16.15;57.10;101397.22;4871554;28;124405;-69
2022/09/17 07:10:57;;;;;;;8.15;1.60;;;;;;;16.19;56.84;101391.72;4869922;28;118219;-69
2022/09/17 07:13:24;;;;;;;7.40;2.03;;;;;;;16.20;56.71;101398.75;4869912;28;119413;-69
2022/09/17 07:15:56;;;;;;;7.60;1.65;;;;;;;16.21;56.49;101397.81;4870617;28;124012;-69
2022/09/17 07:18:24;;;;;;;6.40;1.42;;;;;;;16.24;56.34;101394.97;4867238;28;124359;-69
2022/09/17 07:20:54;;;;;;;7.57;1.30;;;;;;;16.29;56.71;101385.72;4886947;28;119972;-70
2022/09/17 07:23:23;;;;;;;9.48;1.25;;;;;;;16.41;56.66;101397.47;4876586;28;118989;-70
2022/09/17 07:25:51;;;;;;;7.78;1.40;;;;;;;16.53;56.34;101391.38;4875573;28;123781;-70
2022/09/17 07:28:19;;;;;;;10.18;1.75;;;;;;;16.64;55.94;101400.56;4876157;28;122615;-70
2022/09/17 07:30:46;;;;;;;7.75;1.50;;;;;;;16.71;55.67;101393.88;4892764;28;117437;-69
2022/09/17 07:33:14;;;;;;;5.97;1.58;;;;;;;16.79;55.79;101402.28;4878336;28;118722;-70
2022/09/17 07:35:41;;;;;;;8.32;1.25;;;;;;;16.84;55.49;101400.22;4893269;28;124036;-70
2022/09/17 07:38:08;;;;;;;7.40;1.38;;;;;;;16.91;55.52;101390.88;4877782;28;124405;-70
2022/09/17 07:40:36;;;;;;;3.53;1.20;;;;;;;17.01;55.29;101390.25;4876584;28;118734;-70
2022/09/17 07:43:03;;;;;;;5.88;1.40;;;;;;;17.08;55.14;101392.47;4872898;28;119374;-70
2022/09/17 07:45:30;;;;;;;7.72;1.40;;;;;;;17.14;54.76;101401.94;4873724;28;124190;-70
2022/09/17 07:47:57;;;;;;;6.70;1.35;;;;;;;17.16;54.55;101394.66;4874265;28;123692;-70
2022/09/17 07:50:24;;;;;;;5.95;1.38;;;;;;;17.19;54.44;101394.44;4875110;28;121437;-69
2022/09/17 07:52:51;;;;;;;7.75;1.50;;;;;;;17.23;54.30;101400.47;4876885;28;120680;-70
2022/09/17 07:55:18;;;;;;;8.52;1.35;;;;;;;17.24;54.34;101395.00;4874131;28;124853;-69
2022/09/17 07:57:50;;;;;;;4.10;1.00;;;;;;;17.26;54.12;101393.09;4867261;28;122049;-70
2022/09/17 08:00:17;;;;;;;5.78;1.08;;;;;;;17.27;53.86;101397.50;4867512;28;119176;-70
2022/09/17 08:02:44;;;;;;;4.15;1.10;;;;;;;17.34;53.88;101391.75;4873928;28;118981;-70
2022/09/17 08:05:11;;;;;;;7.38;1.20;;;;;;;17.41;53.98;101399.28;4856321;28;122609;-70
2022/09/17 08:07:39;;;;;;;2.85;0.90;;;;;;;17.49;53.77;101396.09;4871445;28;124495;-70
2022/09/17 08:10:06;;;;;;;2.97;1.10;;;;;;;17.55;53.39;101401.03;4869821;28;118106;-70
2022/09/17 08:12:33;;;;;;;6.70;1.20;;;;;;;17.58;53.06;101400.84;4867515;28;118611;-70
2022/09/17 08:15:00;;;;;;;3.75;0.93;;;;;;;17.61;52.70;101397.97;4869402;28;123954;-70
2022/09/17 08:17:27;;;;;;;6.65;1.00;;;;;;;17.64;52.64;101416.50;4872463;28;123553;-70
2022/09/17 08:19:54;;;;;;;4.22;0.98;;;;;;;17.68;52.42;101412.66;4869512;28;119090;-70
2022/09/17 08:22:21;;;;;;;5.82;1.17;;;;;;;17.71;52.36;101407.13;4870959;28;119476;-70
2022/09/17 08:24:48;;;;;;;6.22;1.20;;;;;;;17.79;52.43;101408.44;4884435;28;123018;-71
2022/09/17 08:27:15;;;;;;;9.05;1.30;;;;;;;17.88;52.11;101407.84;4870909;28;123734;-71
2022/09/17 08:29:42;;;;;;;7.25;1.10;;;;;;;17.97;52.04;101407.25;4872468;28;121966;-71
2022/09/17 08:32:09;;;;;;;4.63;0.90;;;;;;;18.04;51.90;101416.56;4870911;28;118936;-71
2022/09/17 08:34:36;;;;;;;4.82;0.82;;;;;;;18.11;51.95;101413.50;4869257;28;124823;-71
2022/09/17 08:37:04;;;;;;;5.50;1.15;;;;;;;18.22;51.95;101401.06;4874677;28;123401;-71
2022/09/17 08:39:30;;;;;;;5.03;0.98;;;;;;;18.33;51.68;101418.22;4872426;28;120428;-71
2022/09/17 08:42:07;;;;;;;5.72;1.08;;;;;;;18.33;50.89;101411.06;4883324;28;119657;-70
2022/09/17 08:44:42;;;;;;;5.35;1.20;;;;;;;18.32;50.81;101413.84;4893450;28;123007;-71
2022/09/17 08:47:24;;;;;;;6.07;1.17;;;;;;;18.33;51.36;101423.59;4869428;28;123678;-70
2022/09/17 08:49:54;;;;;;;5.10;1.08;;;;;;;18.36;51.18;101418.88;4868970;28;118711;-72
2022/09/17 08:52:45;;;;;;;5.50;1.00;;;;;;;18.39;50.92;101418.69;4880574;28;120184;-72
2022/09/17 08:55:38;;;;;;;4.22;1.23;;;;;;;18.43;50.79;101419.31;4873200;28;123845;-71
2022/09/17 08:58:26;;;;;;;6.35;1.05;;;;;;;18.45;50.89;101410.19;4876391;28;122895;-71
2022/09/17 09:01:10;;;;;;;6.80;0.98;;;;;;;18.49;50.93;101425.09;4866751;28;119447;-71
2022/09/17 09:04:06;;;;;;;5.45;1.23;;;;;;;18.53;50.80;101398.09;4870894;28;119105;-72
2022/09/17 09:06:45;;;;;;;5.00;0.82;;;;;;;18.59;50.76;101403.00;4866090;28;124453;-71
2022/09/17 09:09:16;;;;;;;6.85;1.30;;;;;;;18.66;50.25;101404.31;4865430;28;124129;-71
2022/09/17 09:11:45;;;;;;;4.57;1.15;;;;;;;18.72;50.24;101411.91;4868273;28;120045;-71
2022/09/17 09:14:27;;;;;;;6.80;1.10;;;;;;;18.76;50.29;101421.50;4869463;28;118781;-72
2022/09/17 09:16:57;;;;;;;6.28;1.10;;;;;;;18.78;49.78;101408.81;4869701;28;124674;-72
2022/09/17 09:19:28;;;;;;;4.20;1.08;;;;;;;18.81;49.53;101419.34;4869865;28;123784;-70
2022/09/17 09:22:26;;;;;;;6.65;1.50;;;;;;;18.86;49.50;101417.22;4868701;28;120499;-70
2022/09/17 09:25:25;;;;;;;6.07;1.30;;;;;;;18.92;49.71;101415.06;4876500;28;119464;-70
2022/09/17 09:28:02;;;;;;;11.02;1.05;;;;;;;19.01;49.53;101414.41;4878938;28;124206;-70
2022/09/17 09:30:54;;;;;;;4.05;1.15;;;;;;;19.09;49.59;101406.66;4872978;28;124617;-70
2022/09/17 09:33:30;;;;;;;5.47;1.13;;;;;;;19.18;49.19;101406.00;4866270;28;120486;-70
2022/09/17 09:35:58;;;;;;;6.47;1.00;;;;;;;19.25;48.97;101407.28;4872344;28;119849;-70
2022/09/17 09:38:36;;;;;;;6.88;1.17;;;;;;;19.29;48.58;101404.34;4868843;28;124085;-70
2022/09/17 09:41:18;;;;;;;5.80;1.05;;;;;;;19.27;48.16;101399.09;4867165;28;123704;-70
2022/09/17 09:43:50;;;;;;;7.13;1.13;;;;;;;19.20;47.88;101404.03;4849488;28;119378;-70
2022/09/17 09:46:43;;;;;;;4.82;1.00;;;;;;;19.09;47.84;101412.03;4866626;28;118207;-70
2022/09/17 09:49:18;;;;;;;4.10;0.85;;;;;;;18.99;47.96;101419.03;4859779;28;124321;-70
2022/09/17 09:51:59;;;;;;;6.28;1.02;;;;;;;18.85;48.33;101436.97;4882032;28;122949;-70
2022/09/17 09:54:50;;;;;;;7.15;1.25;;;;;;;18.74;48.82;101449.38;4874687;28;119627;-71
2022/09/17 09:57:32;;;;;;;5.95;1.10;;;;;;;18.56;49.08;101483.72;4865228;28;119077;-71
2022/09/17 10:00:25;;;;;;;7.00;1.10;;;;;;;18.22;49.22;101480.66;4878957;28;125147;-71
2022/09/17 10:02:58;;;;;;;4.45;1.00;;;;;;;17.91;49.97;101461.22;4872958;28;124765;-71
2022/09/17 10:05:26;;;;;;;5.32;1.08;;;;;;;17.63;50.27;101457.66;4874540;28;119737;-71
2022/09/17 10:07:53;;;;;;;4.22;1.02;;;;;;;17.39;50.67;101456.56;4872026;28;118975;-71
2022/09/17 10:10:20;;;;;;;4.70;0.80;;;;;;;17.19;51.36;101445.28;4882714;28;124799;-71
2022/09/17 10:12:47;;;;;;;6.22;0.95;;;;;;;17.05;52.27;101439.97;4866800;28;123910;-71
2022/09/17 10:15:24;;;;;;;4.10;1.10;;;;;;;16.98;53.21;101443.97;4879054;28;119058;-71
2022/09/17 10:18:20;;;;;;;3.75;0.80;;;;;;;16.93;53.67;101437.09;4860324;28;118685;-71
2022/09/17 10:20:53;;;;;;;4.18;0.90;;;;;;;16.97;54.67;101428.88;4886303;28;124403;-71
2022/09/17 10:23:21;;;;;;;3.88;0.80;;;;;;;17.04;55.17;101427.53;4874609;28;123852;-71
2022/09/17 10:25:50;;;;;;;4.40;0.90;;;;;;;17.13;55.37;101427.81;4889347;28;119556;-72
2022/09/17 10:28:32;;;;;;;3.05;0.77;;;;;;;17.21;55.09;101430.00;4875071;28;120227;-72
2022/09/17 10:31:08;;;;;;;1.98;0.70;;;;;;;17.28;54.73;101415.25;4876571;28;124448;-72
2022/09/17 10:33:50;;;;;;;4.70;0.70;;;;;;;17.37;54.99;101421.00;4873435;28;123678;-71
2022/09/17 10:36:40;;;;;;;4.35;0.90;;;;;;;17.47;54.93;101409.56;4875993;28;119674;-72
2022/09/17 10:39:32;;;;;;;3.90;0.77;;;;;;;17.59;54.75;101409.75;4877409;28;118670;-71
2022/09/17 10:42:03;;;;;;;3.00;0.90;;;;;;;17.70;54.73;101416.09;4858379;28;123984;-71
2022/09/17 10:44:33;;;;;;;6.57;0.93;;;;;;;17.81;54.04;101401.16;4877487;28;123999;-71
2022/09/17 10:47:14;;;;;;;5.28;1.00;;;;;;;17.90;54.13;101405.94;4878978;28;117382;-72
2022/09/17 10:49:46;;;;;;;3.88;0.90;;;;;;;18.01;54.21;101413.25;4884365;28;117924;-71
2022/09/17 10:52:28;;;;;;;3.17;0.88;;;;;;;18.12;53.78;101404.47;4866968;28;124103;-71
2022/09/17 10:55:16;;;;;;;3.33;0.90;;;;;;;18.22;53.49;101408.25;4870333;28;125193;-71
2022/09/17 10:57:52;;;;;;;4.05;0.90;;;;;;;18.32;52.58;101417.38;4872692;28;119386;-71
2022/09/17 11:00:22;;;;;;;2.50;0.73;;;;;;;18.40;51.99;101401.63;4885964;28;118159;-70
2022/09/17 11:03:28;;;;;;;8.10;1.10;;;;;;;18.49;51.64;101405.47;4873632;28;123973;-71
2022/09/17 11:06:17;;;;;;;3.63;0.88;;;;;;;18.58;51.32;101406.69;4873982;28;124376;-71
2022/09/17 11:09:06;;;;;;;4.82;0.98;;;;;;;18.63;50.76;101400.03;4868138;28;119282;-72
2022/09/17 11:12:10;;;;;;;2.63;0.70;;;;;;;18.67;50.38;101396.16;4874889;28;118913;-70
2022/09/17 11:14:58;;;;;;;3.15;0.80;;;;;;;18.67;50.19;101389.94;4881749;28;123904;-69
2022/09/17 11:17:57;;;;;;;2.30;0.63;;;;;;;18.70;50.13;101394.22;4883919;28;124088;-69
2022/09/17 11:20:39;;;;;;;2.08;0.60;;;;;;;18.74;49.99;101396.59;4870868;28;120514;-70
2022/09/17 11:23:48;;;;;;;2.83;0.73;;;;;;;18.79;49.80;101389.06;4876749;28;120040;-71
2022/09/17 11:26:31;;;;;;;3.00;0.80;;;;;;;18.76;49.20;101394.66;4873849;28;124386;-70
2022/09/17 11:29:18;;;;;;;3.30;0.80;;;;;;;18.71;49.03;101391.44;4880892;28;123643;-70
2022/09/17 11:32:38;;;;;;;4.80;0.80;;;;;;;18.64;49.27;101400.88;4870970;28;119617;-69
2022/09/17 11:35:15;;;;;;;6.15;0.93;;;;;;;18.50;49.62;101399.16;4887325;28;118027;-70
2022/09/17 11:37:48;;;;;;;4.90;0.77;;;;;;;18.33;49.87;101408.38;4872826;28;124086;-73
2022/09/17 11:40:23;;;;;;;1.98;0.75;;;;;;;18.18;50.80;101398.72;4887187;28;123413;-70
2022/09/17 11:42:59;;;;;;;3.77;1.00;;;;;;;18.09;51.67;101395.66;4886814;28;118404;-71